createdAt,value
2019-05-02T00:00:47.597Z,89.73
2019-05-02T00:03:19.783Z,89.07
2019-05-02T00:05:50.662Z,89.44
2019-05-02T00:08:40.513Z,89.54
2019-05-02T00:11:12.568Z,89.35
2019-05-02T00:13:42.982Z,89.65
2019-05-02T00:16:14.098Z,89.80
2019-05-02T00:18:45.695Z,89.79
2019-05-02T00:21:16.527Z,90.04
2019-05-02T00:23:47.405Z,89.79
2019-05-02T00:26:17.857Z,89.88
2019-05-02T00:28:49.877Z,89.99
2019-05-02T00:31:21.968Z,90.10
2019-05-02T00:33:52.422Z,89.96
2019-05-02T00:36:22.881Z,89.94
2019-05-02T00:38:53.361Z,89.97
2019-05-02T00:41:24.190Z,90.05
2019-05-02T00:43:54.623Z,90.29
2019-05-02T00:46:25.066Z,90.46
2019-05-02T00:49:01.492Z,90.52
2019-05-02T00:51:31.520Z,90.74
2019-05-02T00:54:01.935Z,90.74
2019-05-02T00:56:32.418Z,90.88
2019-05-02T00:59:07.373Z,90.62
2019-05-02T01:01:45.636Z,90.52
2019-05-02T01:04:23.436Z,90.80
2019-05-02T01:06:52.838Z,90.88
2019-05-02T01:09:23.731Z,90.80
2019-05-02T01:11:54.161Z,90.84
2019-05-02T01:14:27.079Z,90.97
2019-05-02T01:16:56.789Z,91.11
2019-05-02T01:19:27.207Z,91.01
2019-05-02T01:21:57.722Z,91.07
2019-05-02T01:24:28.216Z,91.03
2019-05-02T01:27:10.662Z,91.06
2019-05-02T01:29:46.255Z,91.21
2019-05-02T01:32:39.646Z,91.83
2019-05-02T01:35:22.032Z,91.71
2019-05-02T01:38:17.344Z,91.53
2019-05-02T01:40:53.278Z,91.59
2019-05-02T01:43:26.252Z,91.35
2019-05-02T01:45:56.817Z,91.52
2019-05-02T01:48:27.266Z,91.40
2019-05-02T01:50:57.701Z,91.12
2019-05-02T01:53:29.307Z,91.40
2019-05-02T01:56:00.404Z,91.35
2019-05-02T01:58:30.926Z,91.52
2019-05-02T02:01:01.377Z,91.22
2019-05-02T02:03:31.994Z,91.48
2019-05-02T02:06:02.773Z,91.47
2019-05-02T02:08:34.855Z,91.39
2019-05-02T02:11:05.382Z,91.10
2019-05-02T02:13:36.568Z,90.77
2019-05-02T02:16:27.273Z,90.84
2019-05-02T02:19:05.361Z,90.92
2019-05-02T02:21:45.371Z,91.18
2019-05-02T02:24:25.235Z,91.13
2019-05-02T02:26:55.597Z,91.19
2019-05-02T02:29:25.976Z,91.08
2019-05-02T02:31:56.430Z,91.10
2019-05-02T02:34:29.619Z,91.10
2019-05-02T02:36:59.069Z,91.52
2019-05-02T02:39:29.499Z,91.42
2019-05-02T02:42:00.032Z,91.28
2019-05-02T02:44:47.129Z,90.98
2019-05-02T02:47:18.822Z,91.09
2019-05-02T02:49:55.729Z,91.08
2019-05-02T02:52:22.213Z,91.01
2019-05-02T02:54:52.636Z,90.92
2019-05-02T02:57:28.029Z,91.07
2019-05-02T03:00:06.660Z,91.53
2019-05-02T03:02:27.434Z,91.83
2019-05-02T03:04:57.868Z,91.59
2019-05-02T03:07:28.948Z,91.49
2019-05-02T03:10:05.903Z,91.55
2019-05-02T03:12:49.314Z,91.55
2019-05-02T03:15:28.181Z,91.65
2019-05-02T03:17:59.886Z,91.55
2019-05-02T03:20:26.337Z,91.56
2019-05-02T03:22:56.895Z,91.85
2019-05-02T03:25:49.260Z,91.76
2019-05-02T03:27:59.719Z,91.75
2019-05-02T03:30:36.390Z,91.75
2019-05-02T03:33:09.839Z,92.27
2019-05-02T03:35:42.512Z,92.08
2019-05-02T03:38:06.906Z,92.15
2019-05-02T03:40:38.893Z,91.90
2019-05-02T03:43:09.817Z,92.05
2019-05-02T03:45:43.148Z,92.22
2019-05-02T03:48:22.480Z,92.32
2019-05-02T03:50:45.058Z,92.57
2019-05-02T03:53:17.548Z,92.38
2019-05-02T03:55:47.608Z,92.27
2019-05-02T03:58:18.234Z,92.79
2019-05-02T04:00:55.146Z,93.12
2019-05-02T04:03:22.158Z,93.38
2019-05-02T04:05:52.875Z,94.03
2019-05-02T04:08:24.219Z,94.06
2019-05-02T04:11:25.279Z,94.45
2019-05-02T04:13:59.033Z,94.17
2019-05-02T04:16:30.900Z,94.22
2019-05-02T04:19:03.970Z,94.53
2019-05-02T04:21:35.954Z,94.49
2019-05-02T04:24:13.326Z,94.53
2019-05-02T04:26:52.678Z,94.67
2019-05-02T04:29:12.350Z,94.77
2019-05-02T04:31:42.771Z,94.60
2019-05-02T04:34:15.229Z,94.57
2019-05-02T04:36:46.805Z,94.92
2019-05-02T04:39:21.457Z,94.80
2019-05-02T04:41:49.911Z,94.85
2019-05-02T04:44:20.358Z,94.93
2019-05-02T04:46:50.814Z,95.21
2019-05-02T04:49:32.827Z,95.07
2019-05-02T04:52:01.561Z,95.22
2019-05-02T04:54:29.095Z,94.77
2019-05-02T04:56:59.003Z,94.91
2019-05-02T04:59:32.945Z,94.69
2019-05-02T05:02:02.210Z,94.77
2019-05-02T05:04:38.529Z,94.95
2019-05-02T05:07:04.889Z,94.93
2019-05-02T05:09:35.345Z,94.83
2019-05-02T05:12:07.145Z,94.59
2019-05-02T05:14:42.759Z,94.38
2019-05-02T05:17:09.985Z,94.38
2019-05-02T05:19:40.466Z,94.57
2019-05-02T05:22:12.005Z,94.48
2019-05-02T05:24:49.398Z,94.44
2019-05-02T05:27:22.793Z,94.60
2019-05-02T05:29:53.684Z,94.44
2019-05-02T05:32:24.129Z,94.35
2019-05-02T05:34:57.931Z,94.29
2019-05-02T05:37:29.506Z,94.32
2019-05-02T05:40:00.148Z,94.62
2019-05-02T05:42:33.398Z,94.88
2019-05-02T05:45:03.799Z,94.80
2019-05-02T05:47:34.996Z,94.54
2019-05-02T05:50:08.128Z,94.29
2019-05-02T05:52:42.292Z,93.59
2019-05-02T05:55:12.912Z,93.00
2019-05-02T05:57:42.949Z,92.76
2019-05-02T06:00:22.922Z,93.36
2019-05-02T06:02:56.351Z,92.66
2019-05-02T06:05:23.135Z,90.72
2019-05-02T06:07:53.843Z,89.23
2019-05-02T06:10:24.235Z,89.08
2019-05-02T06:12:54.674Z,89.55
2019-05-02T06:15:25.100Z,89.21
2019-05-02T06:17:55.543Z,89.17
2019-05-02T06:20:30.593Z,88.36
2019-05-02T06:22:59.886Z,89.24
2019-05-02T06:25:34.154Z,89.77
2019-05-02T06:28:05.414Z,88.86
2019-05-02T06:30:35.027Z,87.72
2019-05-02T06:33:05.541Z,87.11
2019-05-02T06:35:35.946Z,86.94
2019-05-02T06:38:06.434Z,86.24
2019-05-02T06:40:39.420Z,85.59
2019-05-02T06:43:11.294Z,85.50
2019-05-02T06:45:41.890Z,85.30
2019-05-02T06:48:16.864Z,84.88
2019-05-02T06:50:44.597Z,85.16
2019-05-02T06:53:15.189Z,84.49
2019-05-02T06:55:45.626Z,84.30
2019-05-02T06:58:16.738Z,84.72
2019-05-02T07:00:57.616Z,86.04
2019-05-02T07:03:20.175Z,86.72
2019-05-02T07:05:50.630Z,87.80
2019-05-02T07:08:21.127Z,88.49
2019-05-02T07:10:55.980Z,88.93
2019-05-02T07:13:24.412Z,89.97
2019-05-02T07:16:04.335Z,90.13
2019-05-02T07:18:42.001Z,90.24
2019-05-02T07:21:17.307Z,90.37
2019-05-02T07:23:48.633Z,90.55
2019-05-02T07:26:21.047Z,91.03
2019-05-02T07:28:49.458Z,90.26
2019-05-02T07:31:20.701Z,90.55
2019-05-02T07:33:51.214Z,90.23
2019-05-02T07:36:21.831Z,90.60
2019-05-02T07:38:52.337Z,90.56
2019-05-02T07:41:24.103Z,90.62
2019-05-02T07:43:56.296Z,90.78
2019-05-02T07:46:27.563Z,90.90
2019-05-02T07:48:58.156Z,90.92
2019-05-02T07:51:28.642Z,91.26
2019-05-02T07:53:59.341Z,91.26
2019-05-02T07:56:29.837Z,91.19
2019-05-02T07:59:00.283Z,91.75
2019-05-02T08:01:30.783Z,91.97
2019-05-02T08:04:04.485Z,92.12
2019-05-02T08:06:35.466Z,92.34
2019-05-02T08:09:09.201Z,92.80
2019-05-02T08:11:40.065Z,93.25
2019-05-02T08:14:10.601Z,93.75
2019-05-02T08:16:41.065Z,94.30
2019-05-02T08:19:11.597Z,95.01
2019-05-02T08:21:42.119Z,95.40
2019-05-02T08:24:13.438Z,95.67
2019-05-02T08:27:11.581Z,96.06
2019-05-02T08:29:42.125Z,96.77
2019-05-02T08:32:13.285Z,96.82
2019-05-02T08:34:46.237Z,97.41
2019-05-02T08:37:15.936Z,97.48
2019-05-02T08:39:46.786Z,97.56
2019-05-02T08:42:17.249Z,97.60
2019-05-02T08:44:51.063Z,97.60
2019-05-02T08:47:23.761Z,97.66
2019-05-02T08:49:54.784Z,97.82
2019-05-02T08:52:24.541Z,97.94
2019-05-02T08:54:55.126Z,98.08
2019-05-02T08:57:29.782Z,98.13
2019-05-02T09:00:00.232Z,98.55
2019-05-02T09:02:40.823Z,98.75
2019-05-02T09:05:04.522Z,98.95
2019-05-02T09:07:36.991Z,98.97
2019-05-02T09:10:07.912Z,99.27
2019-05-02T09:12:42.299Z,99.17
2019-05-02T09:15:12.080Z,99.30
2019-05-02T09:17:44.686Z,99.02
2019-05-02T09:20:20.768Z,99.03
2019-05-02T09:22:52.101Z,99.28
2019-05-02T09:25:22.088Z,99.21
2019-05-02T09:27:52.826Z,98.86
2019-05-02T09:30:25.794Z,99.14
2019-05-02T09:32:57.126Z,98.88
2019-05-02T09:35:28.110Z,99.04
2019-05-02T09:37:58.631Z,98.40
2019-05-02T09:40:29.096Z,98.95
2019-05-02T09:43:02.123Z,98.74
2019-05-02T09:45:37.423Z,98.65
2019-05-02T09:48:08.236Z,98.31
2019-05-02T09:50:39.384Z,97.93
2019-05-02T09:53:13.002Z,97.81
2019-05-02T09:55:50.345Z,97.68
2019-05-02T09:58:19.625Z,97.70
2019-05-02T10:00:59.060Z,97.73
2019-05-02T10:03:31.695Z,98.36
2019-05-02T10:06:03.118Z,97.98
2019-05-02T10:08:33.801Z,97.81
2019-05-02T10:11:04.461Z,98.18
2019-05-02T10:13:35.441Z,98.25
2019-05-02T10:16:06.001Z,97.70
2019-05-02T10:18:36.501Z,97.08
2019-05-02T10:21:07.876Z,97.41
2019-05-02T10:23:39.109Z,97.74
2019-05-02T10:26:14.651Z,97.57
2019-05-02T10:28:49.554Z,97.35
2019-05-02T10:31:14.604Z,97.43
2019-05-02T10:33:45.039Z,97.02
2019-05-02T10:36:19.693Z,97.10
2019-05-02T10:38:48.979Z,97.64
2019-05-02T10:41:19.975Z,97.63
2019-05-02T10:43:52.013Z,98.03
2019-05-02T10:46:38.002Z,98.25
2019-05-02T10:49:20.241Z,98.54
2019-05-02T10:51:53.667Z,98.53
2019-05-02T10:54:28.000Z,98.82
2019-05-02T10:56:55.981Z,99.02
2019-05-02T10:59:26.550Z,99.14
2019-05-02T11:02:14.649Z,98.95
2019-05-02T11:04:49.723Z,98.52
2019-05-02T11:07:22.606Z,98.76
2019-05-02T11:09:57.426Z,98.43
2019-05-02T11:12:56.165Z,98.34
2019-05-02T11:15:47.158Z,98.05
2019-05-02T11:18:22.131Z,98.20
2019-05-02T11:20:53.759Z,98.34
2019-05-02T11:23:24.460Z,98.79
2019-05-02T11:25:55.423Z,98.98
2019-05-02T11:28:25.934Z,99.27
2019-05-02T11:30:56.929Z,99.33
2019-05-02T11:33:28.725Z,99.54
2019-05-02T11:35:59.165Z,99.41
2019-05-02T11:38:35.345Z,99.73
2019-05-02T11:41:02.731Z,99.79
2019-05-02T11:43:37.178Z,99.75
2019-05-02T11:46:07.215Z,99.75
2019-05-02T11:48:37.851Z,99.63
2019-05-02T11:51:12.754Z,99.03
2019-05-02T11:53:43.250Z,99.73
2019-05-02T11:56:33.131Z,99.58
2019-05-02T11:59:03.632Z,99.26
2019-05-02T12:01:39.350Z,99.11
2019-05-02T12:04:07.527Z,99.11
2019-05-02T12:06:38.562Z,99.01
2019-05-02T12:09:13.331Z,99.06
2019-05-02T12:11:47.513Z,99.00
2019-05-02T12:14:16.014Z,99.01
2019-05-02T12:16:46.465Z,99.20
2019-05-02T12:19:16.957Z,98.81
2019-05-02T12:21:56.621Z,98.61
2019-05-02T12:24:27.177Z,98.27
2019-05-02T12:26:58.304Z,98.04
2019-05-02T12:29:28.750Z,97.81
2019-05-02T12:31:59.160Z,97.57
2019-05-02T12:34:29.706Z,97.25
2019-05-02T12:37:01.741Z,97.47
2019-05-02T12:39:32.351Z,97.65
2019-05-02T12:42:03.494Z,96.27
2019-05-02T12:44:34.171Z,96.45
2019-05-02T12:47:04.677Z,95.83
2019-05-02T12:49:35.099Z,95.38
2019-05-02T12:52:05.580Z,95.52
2019-05-02T12:54:36.101Z,94.87
2019-05-02T12:57:06.608Z,94.48
2019-05-02T12:59:37.132Z,94.64
2019-05-02T13:02:12.145Z,94.77
2019-05-02T13:04:42.603Z,95.19
2019-05-02T13:07:13.056Z,94.98
2019-05-02T13:09:43.532Z,94.13
2019-05-02T13:12:19.147Z,95.22
2019-05-02T13:14:58.012Z,94.80
2019-05-02T13:17:29.480Z,94.45
2019-05-02T13:20:03.329Z,95.08
2019-05-02T13:22:57.357Z,95.11
2019-05-02T13:25:34.715Z,94.54
2019-05-02T13:28:01.984Z,92.90
2019-05-02T13:30:46.791Z,92.76
2019-05-02T13:33:27.324Z,91.66
2019-05-02T13:35:58.813Z,90.27
2019-05-02T13:38:29.514Z,90.07
2019-05-02T13:41:00.169Z,90.97
2019-05-02T13:43:36.212Z,90.84
2019-05-02T13:46:17.826Z,91.04
2019-05-02T13:48:48.497Z,91.58
2019-05-02T13:51:19.276Z,90.69
2019-05-02T13:53:56.729Z,89.65
2019-05-02T13:56:48.170Z,88.45
2019-05-02T13:59:22.173Z,89.18
2019-05-02T14:03:11.973Z,89.60
2019-05-02T14:06:29.607Z,89.71
2019-05-02T14:09:58.236Z,89.98
2019-05-02T14:12:55.433Z,88.20
2019-05-02T14:15:32.493Z,88.36
2019-05-02T14:18:08.974Z,87.98
2019-05-02T14:20:46.801Z,87.58
2019-05-02T14:23:17.467Z,86.95
2019-05-02T14:25:48.118Z,86.83
2019-05-02T14:28:18.695Z,86.78
2019-05-02T14:30:49.278Z,86.49
2019-05-02T14:33:23.362Z,85.30
2019-05-02T14:35:56.223Z,84.69
2019-05-02T14:38:26.781Z,84.11
2019-05-02T14:41:12.404Z,84.57
2019-05-02T14:43:52.611Z,83.86
2019-05-02T14:46:35.381Z,83.69
2019-05-02T14:49:02.566Z,83.38
2019-05-02T15:00:17.008Z,83.15
2019-05-02T15:08:06.997Z,80.38
2019-05-02T15:15:02.640Z,82.05
2019-05-02T15:17:42.046Z,81.71
2019-05-02T15:20:36.523Z,80.85
2019-05-02T15:23:02.736Z,79.61
2019-05-02T15:26:20.400Z,79.07
2019-05-02T15:29:41.829Z,79.44
2019-05-02T15:32:46.855Z,79.43
2019-05-02T15:36:13.046Z,79.59
2019-05-02T15:42:09.722Z,77.48
2019-05-02T15:48:22.492Z,79.00
2019-05-02T15:59:43.210Z,79.07
2019-05-02T16:02:36.347Z,78.41
2019-05-02T16:05:09.006Z,78.41
2019-05-02T16:07:43.260Z,78.27
2019-05-02T16:10:14.749Z,77.54
2019-05-02T16:12:46.991Z,77.90
2019-05-02T16:15:24.792Z,76.80
2019-05-02T16:17:56.931Z,76.77
2019-05-02T16:21:07.743Z,76.04
2019-05-02T16:27:31.473Z,75.83
2019-05-02T16:30:07.555Z,76.45
2019-05-02T16:32:52.068Z,75.60
2019-05-02T16:35:24.072Z,76.11
2019-05-02T16:37:57.734Z,76.63
2019-05-02T16:40:32.153Z,77.79
2019-05-02T16:43:02.799Z,78.62
2019-05-02T16:45:33.861Z,78.04
2019-05-02T16:48:05.482Z,78.29
2019-05-02T16:50:36.982Z,78.11
2019-05-02T16:53:07.836Z,77.89
2019-05-02T16:55:38.316Z,76.84
2019-05-02T16:58:12.301Z,75.86
2019-05-02T17:00:49.352Z,75.07
2019-05-02T17:03:22.694Z,75.78
2019-05-02T17:05:52.470Z,76.33
2019-05-02T17:08:49.433Z,76.86
2019-05-02T17:11:27.899Z,77.74
2019-05-02T17:14:07.188Z,78.07
2019-05-02T17:16:36.256Z,78.32
2019-05-02T17:19:07.902Z,78.54
2019-05-02T17:21:53.179Z,78.59
2019-05-02T17:24:22.657Z,78.82
2019-05-02T17:26:53.032Z,79.06
2019-05-02T17:29:23.534Z,79.83
2019-05-02T17:31:58.982Z,79.74
2019-05-02T17:34:30.828Z,80.21
2019-05-02T17:37:11.168Z,80.37
2019-05-02T17:39:37.460Z,80.68
2019-05-02T17:42:09.493Z,80.86
2019-05-02T17:44:44.062Z,80.98
2019-05-02T17:47:14.585Z,80.32
2019-05-02T17:49:46.312Z,79.06
2019-05-02T17:52:36.001Z,79.48
2019-05-02T17:55:13.740Z,79.34
2019-05-02T17:57:48.716Z,79.59
2019-05-02T18:00:23.249Z,79.89
2019-05-02T18:02:53.850Z,80.38
2019-05-02T18:05:26.550Z,80.66
2019-05-02T18:07:56.597Z,80.72
2019-05-02T18:10:27.289Z,80.83
2019-05-02T18:12:59.868Z,81.04
2019-05-02T18:15:34.675Z,81.07
2019-05-02T18:18:06.480Z,80.95
2019-05-02T18:20:37.280Z,81.50
2019-05-02T18:23:08.003Z,81.87
2019-05-02T18:25:38.445Z,82.21
2019-05-02T18:28:08.918Z,82.40
2019-05-02T18:30:41.723Z,82.60
2019-05-02T18:33:12.289Z,82.74
2019-05-02T18:35:46.837Z,82.63
2019-05-02T18:38:15.855Z,82.34
2019-05-02T18:40:47.217Z,82.53
2019-05-02T18:43:17.797Z,82.93
2019-05-02T18:45:48.348Z,83.63
2019-05-02T18:48:18.882Z,83.70
2019-05-02T18:50:55.593Z,84.42
2019-05-02T18:53:27.384Z,84.51
2019-05-02T18:56:01.774Z,84.80
2019-05-02T18:58:31.963Z,85.37
2019-05-02T19:01:03.539Z,85.78
2019-05-02T19:03:34.100Z,85.62
2019-05-02T19:06:04.937Z,85.74
2019-05-02T19:08:46.589Z,85.85
2019-05-02T19:11:13.408Z,85.59
2019-05-02T19:13:44.963Z,85.63
2019-05-02T19:16:19.380Z,85.50
2019-05-02T19:18:48.972Z,84.78
2019-05-02T19:21:21.697Z,84.64
2019-05-02T19:23:52.272Z,84.63
2019-05-02T19:26:22.728Z,85.51
2019-05-02T19:29:08.580Z,85.49
2019-05-02T19:31:45.848Z,85.50
2019-05-02T19:34:16.793Z,85.42
2019-05-02T19:36:49.085Z,84.97
2019-05-02T19:39:19.550Z,85.15
2019-05-02T19:41:51.675Z,85.42
2019-05-02T19:44:29.206Z,85.24
2019-05-02T19:47:25.105Z,85.52
2019-05-02T19:50:03.247Z,85.41
2019-05-02T19:53:00.889Z,85.31
2019-05-02T19:55:24.164Z,85.11
2019-05-02T19:57:56.699Z,85.10
2019-05-02T20:00:27.372Z,85.14
2019-05-02T20:02:57.898Z,85.28
2019-05-02T20:05:28.397Z,85.70
2019-05-02T20:07:58.975Z,85.74
2019-05-02T20:10:29.522Z,85.26
2019-05-02T20:13:03.091Z,85.07
2019-05-02T20:16:05.779Z,85.05
2019-05-02T20:18:53.605Z,84.44
2019-05-02T20:21:32.657Z,84.20
2019-05-02T20:24:04.253Z,85.23
2019-05-02T20:26:35.804Z,85.75
2019-05-02T20:29:06.303Z,85.92
2019-05-02T20:31:37.023Z,86.58
2019-05-02T20:34:07.757Z,86.66
2019-05-02T20:36:38.285Z,86.95
2019-05-02T20:39:11.915Z,86.15
2019-05-02T20:41:42.488Z,85.74
2019-05-02T20:44:12.954Z,86.24
2019-05-02T20:46:45.923Z,86.27
2019-05-02T20:49:26.502Z,86.06
2019-05-02T20:52:21.755Z,86.14
2019-05-02T20:54:53.056Z,86.06
2019-05-02T20:57:23.548Z,85.57
2019-05-02T20:59:54.136Z,85.45
2019-05-02T21:02:24.590Z,85.14
2019-05-02T21:04:55.197Z,84.95
2019-05-02T21:07:42.290Z,84.72
2019-05-02T21:10:22.680Z,84.14
2019-05-02T21:12:53.190Z,84.06
2019-05-02T21:15:23.726Z,84.04
2019-05-02T21:17:54.428Z,83.66
2019-05-02T21:20:26.246Z,83.82
2019-05-02T21:23:09.178Z,83.94
2019-05-02T21:25:41.684Z,83.74
2019-05-02T21:33:59.206Z,84.27
2019-05-02T21:36:32.660Z,84.23
2019-05-02T21:39:03.461Z,84.04
2019-05-02T21:41:35.361Z,84.28
2019-05-02T21:44:06.411Z,84.32
2019-05-02T21:46:36.938Z,84.42
2019-05-02T21:49:07.487Z,84.40
2019-05-02T21:52:15.075Z,84.37
2019-05-02T21:54:54.903Z,84.33
2019-05-02T21:57:59.652Z,84.37
2019-05-02T22:00:48.885Z,83.45
2019-05-02T22:03:19.414Z,81.73
2019-05-02T22:05:51.943Z,81.95
2019-05-02T22:08:22.487Z,81.45
2019-05-02T22:10:53.094Z,81.41
2019-05-02T22:13:23.558Z,81.70
2019-05-02T22:15:54.081Z,81.02
2019-05-02T22:18:24.608Z,80.51
2019-05-02T22:21:26.684Z,80.66
2019-05-02T22:24:08.245Z,80.57
2019-05-02T22:26:29.346Z,80.83
2019-05-02T22:29:21.863Z,81.38
2019-05-02T22:31:57.586Z,82.06
2019-05-02T22:34:35.355Z,82.01
2019-05-02T22:37:27.742Z,82.09
2019-05-02T22:40:03.943Z,82.09
2019-05-02T22:42:52.342Z,81.99
2019-05-02T22:45:26.370Z,82.01
2019-05-02T22:47:56.901Z,81.97
2019-05-02T22:50:32.601Z,81.99
2019-05-02T22:53:04.235Z,82.07
2019-05-02T22:55:34.732Z,82.12
2019-05-02T22:58:05.288Z,82.38
2019-05-02T23:00:38.693Z,82.22
2019-05-02T23:03:09.011Z,82.32
2019-05-02T23:05:39.555Z,82.55
2019-05-02T23:08:10.008Z,82.60
2019-05-02T23:10:41.626Z,82.44
2019-05-02T23:13:13.005Z,82.56
2019-05-02T23:15:43.776Z,82.95
2019-05-02T23:18:14.323Z,82.97
2019-05-02T23:20:45.219Z,83.13
2019-05-02T23:23:15.870Z,83.21
2019-05-02T23:26:12.819Z,83.23
2019-05-02T23:28:46.177Z,83.00
2019-05-02T23:31:16.696Z,83.02
2019-05-02T23:34:08.492Z,83.05
2019-05-02T23:36:41.635Z,82.95
2019-05-02T23:39:12.626Z,83.07
2019-05-02T23:41:52.481Z,82.92
2019-05-02T23:44:31.526Z,83.02
2019-05-02T23:47:16.067Z,83.16
2019-05-02T23:49:47.923Z,83.18
2019-05-02T23:52:22.490Z,83.28
2019-05-02T23:54:53.412Z,83.32
2019-05-02T23:57:23.868Z,83.06
